createdAt,value
2022-10-14T00:00:06.665Z,11.80
2022-10-14T00:02:43.340Z,11.80
2022-10-14T00:05:15.234Z,11.80
2022-10-14T00:07:47.041Z,11.80
2022-10-14T00:10:19.109Z,11.80
2022-10-14T00:12:50.889Z,11.80
2022-10-14T00:15:22.671Z,11.70
2022-10-14T00:17:54.515Z,11.80
2022-10-14T00:20:29.625Z,11.80
2022-10-14T00:23:02.534Z,11.70
2022-10-14T00:25:38.235Z,11.70
2022-10-14T00:28:09.940Z,11.70
2022-10-14T00:30:41.781Z,11.70
2022-10-14T00:33:14.283Z,11.70
2022-10-14T00:35:57.099Z,11.60
2022-10-14T00:38:33.954Z,11.70
2022-10-14T00:41:06.600Z,11.60
2022-10-14T00:43:56.316Z,11.60
2022-10-14T00:46:31.365Z,11.60
2022-10-14T00:49:22.880Z,11.60
2022-10-14T00:51:59.446Z,11.60
2022-10-14T00:54:42.356Z,11.60
2022-10-14T00:57:15.050Z,11.60
2022-10-14T00:59:47.051Z,11.60
2022-10-14T01:02:18.797Z,11.50
2022-10-14T01:04:50.628Z,11.60
2022-10-14T01:07:59.351Z,11.60
2022-10-14T01:10:39.178Z,11.60
2022-10-14T01:13:17.962Z,11.60
2022-10-14T01:16:01.475Z,11.60
2022-10-14T01:18:36.012Z,11.60
2022-10-14T01:21:12.055Z,11.60
2022-10-14T01:24:10.529Z,11.60
2022-10-14T01:26:51.792Z,11.50
2022-10-14T01:29:48.390Z,11.60
2022-10-14T01:32:49.674Z,11.60
2022-10-14T01:35:31.708Z,11.60
2022-10-14T01:38:17.552Z,11.60
2022-10-14T01:41:02.262Z,11.70
2022-10-14T01:43:36.269Z,11.70
2022-10-14T01:46:09.284Z,11.60
2022-10-14T01:48:49.866Z,11.60
2022-10-14T01:51:28.798Z,11.60
2022-10-14T01:54:05.232Z,11.60
2022-10-14T01:56:40.589Z,11.60
2022-10-14T01:59:15.956Z,11.60
2022-10-14T02:01:47.929Z,11.60
2022-10-14T02:04:22.952Z,11.50
2022-10-14T02:07:19.603Z,11.50
2022-10-14T02:10:08.733Z,11.50
2022-10-14T02:12:49.478Z,11.60
2022-10-14T02:15:31.208Z,11.60
2022-10-14T02:18:26.358Z,11.60
2022-10-14T02:21:10.322Z,11.60
2022-10-14T02:23:46.975Z,11.60
2022-10-14T02:26:19.508Z,11.60
2022-10-14T02:28:53.951Z,11.60
2022-10-14T02:31:29.328Z,11.60
2022-10-14T02:34:04.322Z,11.60
2022-10-14T02:36:36.931Z,11.60
2022-10-14T02:39:13.646Z,11.60
2022-10-14T02:41:45.571Z,11.60
2022-10-14T02:44:17.507Z,11.60
2022-10-14T02:46:51.199Z,11.60
2022-10-14T02:49:23.144Z,11.60
2022-10-14T02:51:55.011Z,11.60
2022-10-14T02:54:26.775Z,11.60
2022-10-14T02:56:58.726Z,11.60
2022-10-14T02:59:30.487Z,11.60
2022-10-14T03:02:03.003Z,11.60
2022-10-14T03:04:36.355Z,11.60
2022-10-14T03:07:08.192Z,11.60
2022-10-14T03:09:46.029Z,11.50
2022-10-14T03:12:18.186Z,11.60
2022-10-14T03:14:50.684Z,11.60
2022-10-14T03:17:23.876Z,11.60
2022-10-14T03:19:56.509Z,11.60
2022-10-14T03:22:30.138Z,11.60
2022-10-14T03:25:02.702Z,11.60
2022-10-14T03:27:55.380Z,11.60
2022-10-14T03:30:37.871Z,11.60
2022-10-14T03:33:18.641Z,11.70
2022-10-14T03:36:12.505Z,11.60
2022-10-14T03:39:02.972Z,11.60
2022-10-14T03:41:54.034Z,11.60
2022-10-14T03:44:35.515Z,11.60
2022-10-14T03:47:39.566Z,11.60
2022-10-14T03:50:11.401Z,11.70
2022-10-14T03:52:55.450Z,11.60
2022-10-14T03:55:34.030Z,11.60
2022-10-14T03:58:06.978Z,11.60
2022-10-14T04:00:39.913Z,11.60
2022-10-14T04:03:25.142Z,11.70
2022-10-14T04:05:57.014Z,11.70
2022-10-14T04:08:31.149Z,11.70
2022-10-14T04:11:21.716Z,11.70
2022-10-14T04:13:58.334Z,11.70
2022-10-14T04:16:30.669Z,11.70
2022-10-14T04:19:06.739Z,11.70
2022-10-14T04:21:38.836Z,11.70
2022-10-14T04:24:12.741Z,11.70
2022-10-14T04:26:59.351Z,11.60
2022-10-14T04:29:44.344Z,11.70
2022-10-14T04:32:22.286Z,11.70
2022-10-14T04:34:54.978Z,11.60
2022-10-14T04:37:30.844Z,11.60
2022-10-14T04:40:13.214Z,11.70
2022-10-14T04:42:53.895Z,11.70
2022-10-14T04:45:29.269Z,11.60
2022-10-14T04:48:06.120Z,11.60
2022-10-14T04:50:43.429Z,11.60
2022-10-14T04:53:38.413Z,11.60
2022-10-14T04:56:31.310Z,11.70
2022-10-14T04:59:07.000Z,11.80
2022-10-14T05:02:01.707Z,11.70
2022-10-14T05:04:54.940Z,11.70
2022-10-14T05:07:26.796Z,11.70
2022-10-14T05:10:06.428Z,11.70
2022-10-14T05:12:45.225Z,11.70
2022-10-14T05:15:17.396Z,11.70
2022-10-14T05:17:59.604Z,11.70
2022-10-14T05:20:45.088Z,11.70
2022-10-14T05:23:18.116Z,11.70
2022-10-14T05:25:51.716Z,11.70
2022-10-14T05:28:24.067Z,11.70
2022-10-14T05:30:56.626Z,11.70
2022-10-14T05:33:28.430Z,11.70
2022-10-14T05:36:00.305Z,11.70
2022-10-14T05:38:36.715Z,11.70
2022-10-14T05:41:09.676Z,11.70
2022-10-14T05:43:42.324Z,11.70
2022-10-14T05:46:15.150Z,11.70
2022-10-14T05:48:52.071Z,11.80
2022-10-14T05:51:24.186Z,11.80
2022-10-14T05:54:04.220Z,11.80
2022-10-14T05:56:36.167Z,11.80
2022-10-14T05:59:10.407Z,11.80
2022-10-14T06:01:43.103Z,11.70
2022-10-14T06:04:18.330Z,11.80
2022-10-14T06:06:50.103Z,11.80
2022-10-14T06:09:21.885Z,11.80
2022-10-14T06:11:53.603Z,11.90
2022-10-14T06:14:25.610Z,11.90
2022-10-14T06:16:57.572Z,11.80
2022-10-14T06:19:31.072Z,11.80
2022-10-14T06:22:03.709Z,11.80
2022-10-14T06:24:35.698Z,11.90
2022-10-14T06:27:07.485Z,12.10
2022-10-14T06:29:39.300Z,11.90
2022-10-14T06:32:11.190Z,11.90
2022-10-14T06:34:42.896Z,11.90
2022-10-14T06:37:14.714Z,12.00
2022-10-14T06:39:46.455Z,12.00
2022-10-14T06:42:18.233Z,11.90
2022-10-14T06:44:50.314Z,11.90
2022-10-14T06:47:22.111Z,12.00
2022-10-14T06:49:53.833Z,12.00
2022-10-14T06:52:25.650Z,12.00
2022-10-14T06:54:58.063Z,12.00
2022-10-14T06:57:30.015Z,12.00
2022-10-14T07:00:02.109Z,12.20
2022-10-14T07:02:33.916Z,12.10
2022-10-14T07:05:06.349Z,12.10
2022-10-14T07:07:38.151Z,12.10
2022-10-14T07:10:10.004Z,12.10
2022-10-14T07:12:41.726Z,12.20
2022-10-14T07:15:13.648Z,12.10
2022-10-14T07:17:45.408Z,12.20
2022-10-14T07:20:17.200Z,12.20
2022-10-14T07:22:48.964Z,12.20
2022-10-14T07:25:21.564Z,12.30
2022-10-14T07:27:54.042Z,12.30
2022-10-14T07:30:26.364Z,12.40
2022-10-14T07:32:59.200Z,12.40
2022-10-14T07:35:30.984Z,12.40
2022-10-14T07:38:02.756Z,12.40
2022-10-14T07:40:34.479Z,12.50
2022-10-14T07:43:06.234Z,12.60
2022-10-14T07:45:43.835Z,12.60
2022-10-14T07:48:19.690Z,12.60
2022-10-14T07:50:59.148Z,12.70
2022-10-14T07:53:30.875Z,12.70
2022-10-14T07:56:03.647Z,12.80
2022-10-14T07:58:35.469Z,12.80
2022-10-14T08:01:07.242Z,12.80
2022-10-14T08:03:38.954Z,12.90
2022-10-14T08:06:11.676Z,12.90
2022-10-14T08:08:44.063Z,13.00
2022-10-14T08:11:25.417Z,13.00
2022-10-14T08:13:58.632Z,13.00
2022-10-14T08:16:33.119Z,13.00
2022-10-14T08:19:13.791Z,13.00
2022-10-14T08:21:46.122Z,13.10
2022-10-14T08:24:17.945Z,13.10
2022-10-14T08:26:55.135Z,13.20
2022-10-14T08:29:27.343Z,13.20
2022-10-14T08:31:59.133Z,13.20
2022-10-14T08:34:31.374Z,13.30
2022-10-14T08:37:03.163Z,13.30
2022-10-14T08:39:34.873Z,13.30
2022-10-14T08:42:25.175Z,13.40
2022-10-14T08:45:01.366Z,13.70
2022-10-14T08:47:40.942Z,13.40
2022-10-14T08:50:36.136Z,13.40
2022-10-14T08:53:15.080Z,13.40
2022-10-14T08:55:51.160Z,13.40
2022-10-14T08:58:40.243Z,13.50
2022-10-14T09:01:31.723Z,13.60
2022-10-14T09:04:06.364Z,13.70
2022-10-14T09:06:41.187Z,13.70
2022-10-14T09:09:22.175Z,13.70
2022-10-14T09:12:00.861Z,13.70
2022-10-14T09:14:37.090Z,13.70
2022-10-14T09:17:22.035Z,13.70
2022-10-14T09:20:15.147Z,13.70
2022-10-14T09:23:16.995Z,13.70
2022-10-14T09:25:59.412Z,13.70
2022-10-14T09:28:40.422Z,13.80
2022-10-14T09:31:13.680Z,14.10
2022-10-14T09:33:45.775Z,13.90
2022-10-14T09:36:21.088Z,13.90
2022-10-14T09:38:55.389Z,14.00
2022-10-14T09:41:30.842Z,14.20
2022-10-14T09:44:25.283Z,14.10
2022-10-14T09:47:07.071Z,14.10
2022-10-14T09:49:45.678Z,14.10
2022-10-14T09:52:26.030Z,14.30
2022-10-14T09:55:00.434Z,14.40
2022-10-14T09:57:32.917Z,14.50
2022-10-14T10:00:06.812Z,14.60
2022-10-14T10:02:45.067Z,14.80
2022-10-14T10:05:37.200Z,15.00
2022-10-14T10:08:16.622Z,15.00
2022-10-14T10:11:06.737Z,15.10
2022-10-14T10:13:46.205Z,15.10
2022-10-14T10:16:21.726Z,15.20
2022-10-14T10:18:55.975Z,15.30
2022-10-14T10:21:31.012Z,15.30
2022-10-14T10:24:04.119Z,15.30
2022-10-14T10:26:35.908Z,15.30
2022-10-14T10:29:32.274Z,15.30
2022-10-14T10:32:30.131Z,15.40
2022-10-14T10:35:39.705Z,15.40
2022-10-14T10:38:23.163Z,15.40
2022-10-14T10:40:57.605Z,17.70
2022-10-14T10:43:58.304Z,15.60
2022-10-14T10:46:42.072Z,15.60
2022-10-14T10:49:20.521Z,15.60
2022-10-14T10:52:03.286Z,15.60
2022-10-14T10:55:24.225Z,15.70
2022-10-14T10:58:07.467Z,15.70
2022-10-14T11:01:14.337Z,15.80
2022-10-14T11:04:23.691Z,15.90
2022-10-14T11:07:30.700Z,15.80
2022-10-14T11:10:42.623Z,15.80
2022-10-14T11:13:14.341Z,15.60
2022-10-14T11:16:01.183Z,15.60
2022-10-14T11:18:47.449Z,15.70
2022-10-14T11:21:56.755Z,15.80
2022-10-14T11:25:06.235Z,15.80
2022-10-14T11:27:57.183Z,15.80
2022-10-14T11:30:58.603Z,16.80
2022-10-14T11:33:54.900Z,15.80
2022-10-14T11:36:38.623Z,16.20
2022-10-14T11:39:35.685Z,16.10
2022-10-14T11:42:49.897Z,16.20
2022-10-14T11:45:50.324Z,16.30
2022-10-14T11:48:44.029Z,16.40
2022-10-14T11:51:34.868Z,16.30
2022-10-14T11:54:34.504Z,16.30
2022-10-14T11:57:24.789Z,16.30
2022-10-14T12:00:53.279Z,16.30
2022-10-14T12:03:54.476Z,16.30
2022-10-14T12:06:52.862Z,16.30
2022-10-14T12:12:18.647Z,16.40
2022-10-14T12:14:56.411Z,16.50
2022-10-14T12:17:35.998Z,16.50
2022-10-14T12:20:15.920Z,16.60
2022-10-14T12:22:50.332Z,16.70
2022-10-14T12:25:25.095Z,16.80
2022-10-14T12:27:57.071Z,16.80
2022-10-14T12:30:33.144Z,16.80
2022-10-14T12:33:11.173Z,16.90
2022-10-14T12:35:54.401Z,17.10
2022-10-14T12:38:29.027Z,17.00
2022-10-14T12:41:32.906Z,17.00
2022-10-14T12:44:10.591Z,16.90
2022-10-14T12:46:44.811Z,16.80
2022-10-14T12:49:31.279Z,16.70
2022-10-14T12:52:08.625Z,16.70
2022-10-14T12:54:47.341Z,16.70
2022-10-14T12:57:31.104Z,16.70
2022-10-14T13:00:25.084Z,16.70
2022-10-14T13:03:05.065Z,16.70
2022-10-14T13:05:39.831Z,16.70
2022-10-14T13:08:20.547Z,16.70
2022-10-14T13:10:54.976Z,16.70
2022-10-14T13:13:53.744Z,16.90
2022-10-14T13:16:25.413Z,16.80
2022-10-14T13:19:01.564Z,16.80
2022-10-14T13:21:36.398Z,16.70
2022-10-14T13:24:20.138Z,16.70
2022-10-14T13:26:54.642Z,16.70
2022-10-14T13:29:45.282Z,16.70
2022-10-14T13:32:42.831Z,16.70
2022-10-14T13:35:52.927Z,16.70
2022-10-14T13:38:25.027Z,16.80
2022-10-14T13:40:58.167Z,16.70
2022-10-14T13:43:41.103Z,16.60
2022-10-14T13:46:36.637Z,16.60
2022-10-14T13:49:24.185Z,16.50
2022-10-14T13:52:04.417Z,16.50
2022-10-14T13:54:36.464Z,16.50
2022-10-14T14:00:40.784Z,16.50
2022-10-14T14:03:24.602Z,16.50
2022-10-14T14:05:57.757Z,16.50
2022-10-14T14:08:40.199Z,16.50
2022-10-14T14:11:20.921Z,16.40
2022-10-14T14:14:07.838Z,15.40
2022-10-14T14:16:59.109Z,16.40
2022-10-14T14:19:37.103Z,16.30
2022-10-14T14:22:24.177Z,16.30
2022-10-14T14:25:33.325Z,16.30
2022-10-14T14:28:06.886Z,16.40
2022-10-14T14:30:39.607Z,16.40
2022-10-14T14:33:14.579Z,16.60
2022-10-14T14:35:59.471Z,16.50
2022-10-14T14:38:35.648Z,16.40
2022-10-14T14:41:25.264Z,16.40
2022-10-14T14:46:59.360Z,16.20
2022-10-14T14:49:38.435Z,16.20
2022-10-14T14:52:13.669Z,16.10
2022-10-14T14:54:46.831Z,16.10
2022-10-14T14:57:21.037Z,16.00
2022-10-14T14:59:55.968Z,16.00
2022-10-14T15:02:29.011Z,15.90
2022-10-14T15:05:10.671Z,15.90
2022-10-14T15:07:43.699Z,15.90
2022-10-14T15:10:24.605Z,15.90
2022-10-14T15:12:58.812Z,15.80
2022-10-14T15:15:33.187Z,15.80
2022-10-14T15:18:24.620Z,14.00
2022-10-14T15:21:11.416Z,15.70
2022-10-14T15:23:50.138Z,15.70
2022-10-14T15:26:28.034Z,15.60
2022-10-14T15:29:08.784Z,15.60
2022-10-14T15:31:43.768Z,15.60
2022-10-14T15:34:23.119Z,15.50
2022-10-14T15:36:55.086Z,15.50
2022-10-14T15:39:26.812Z,15.50
2022-10-14T15:41:58.499Z,15.50
2022-10-14T15:44:31.707Z,15.40
2022-10-14T15:47:21.592Z,15.40
2022-10-14T15:49:53.330Z,15.40
2022-10-14T15:52:27.003Z,15.40
2022-10-14T15:54:58.996Z,15.40
2022-10-14T15:57:30.711Z,15.40
2022-10-14T16:00:02.696Z,15.30
2022-10-14T16:02:43.662Z,15.30
2022-10-14T16:05:20.640Z,15.30
2022-10-14T16:07:52.654Z,15.20
2022-10-14T16:10:28.200Z,15.20
2022-10-14T16:13:02.426Z,15.10
2022-10-14T16:15:40.215Z,15.10
2022-10-14T16:18:11.926Z,15.10
2022-10-14T16:20:44.012Z,15.00
2022-10-14T16:23:19.882Z,15.00
2022-10-14T16:25:53.472Z,14.90
2022-10-14T16:28:25.300Z,14.90
2022-10-14T16:30:59.331Z,14.90
2022-10-14T16:33:31.088Z,14.90
2022-10-14T16:36:04.164Z,14.90
2022-10-14T16:38:35.962Z,14.90
2022-10-14T16:41:09.911Z,14.80
2022-10-14T16:43:41.632Z,14.80
2022-10-14T16:46:15.672Z,14.80
2022-10-14T16:48:48.214Z,14.80
2022-10-14T16:53:58.129Z,14.70
2022-10-14T16:56:53.068Z,14.70
2022-10-14T16:59:25.412Z,14.70
2022-10-14T17:01:57.604Z,14.70
2022-10-14T17:04:29.370Z,14.70
2022-10-14T17:07:07.481Z,14.70
2022-10-14T17:09:39.760Z,14.70
2022-10-14T17:12:13.751Z,14.70
2022-10-14T17:14:52.248Z,14.70
2022-10-14T17:17:24.191Z,14.70
2022-10-14T17:19:56.029Z,14.60
2022-10-14T17:22:28.288Z,14.60
2022-10-14T17:25:00.411Z,14.60
2022-10-14T17:27:32.126Z,14.60
2022-10-14T17:30:04.546Z,14.60
2022-10-14T17:32:36.259Z,14.50
2022-10-14T17:35:12.741Z,14.50
2022-10-14T17:37:47.022Z,14.50
2022-10-14T17:40:18.738Z,14.50
2022-10-14T17:42:50.457Z,14.50
2022-10-14T17:45:22.226Z,14.50
2022-10-14T17:47:55.060Z,14.50
2022-10-14T17:50:27.919Z,14.50
2022-10-14T17:53:00.454Z,14.50
2022-10-14T17:55:35.659Z,14.50
2022-10-14T17:58:07.382Z,13.90
2022-10-14T18:00:39.096Z,14.40
2022-10-14T18:03:11.127Z,14.40
2022-10-14T18:05:46.546Z,14.40
2022-10-14T18:08:20.755Z,14.30
2022-10-14T18:10:52.500Z,14.40
2022-10-14T18:13:24.208Z,14.40
2022-10-14T18:15:56.704Z,14.40
2022-10-14T18:18:28.641Z,14.40
2022-10-14T18:21:01.622Z,14.30
2022-10-14T18:23:35.964Z,14.30
2022-10-14T18:26:13.309Z,14.30
2022-10-14T18:28:50.840Z,14.30
2022-10-14T18:31:27.940Z,14.30
2022-10-14T18:34:01.020Z,14.30
2022-10-14T18:36:33.241Z,14.30
2022-10-14T18:39:07.886Z,14.30
2022-10-14T18:41:39.888Z,14.30
2022-10-14T18:44:12.224Z,14.30
2022-10-14T18:46:43.999Z,14.30
2022-10-14T18:49:15.972Z,14.30
2022-10-14T18:51:47.703Z,14.30
2022-10-14T18:54:20.837Z,14.30
2022-10-14T18:56:53.387Z,14.40
2022-10-14T18:59:25.827Z,14.40
2022-10-14T19:01:58.055Z,14.40
2022-10-14T19:04:29.914Z,14.40
2022-10-14T19:07:01.611Z,14.40
2022-10-14T19:09:33.319Z,14.40
2022-10-14T19:12:25.467Z,14.50
2022-10-14T19:14:57.432Z,14.40
2022-10-14T19:17:29.135Z,14.40
2022-10-14T19:20:01.138Z,14.40
2022-10-14T19:22:33.964Z,14.30
2022-10-14T19:25:06.082Z,14.30
2022-10-14T19:27:37.828Z,14.20
2022-10-14T19:30:10.115Z,14.30
2022-10-14T19:32:41.863Z,14.30
2022-10-14T19:35:13.617Z,14.30
2022-10-14T19:37:45.411Z,14.20
2022-10-14T19:40:19.861Z,14.20
2022-10-14T19:42:54.614Z,14.10
2022-10-14T19:45:26.379Z,14.10
2022-10-14T19:47:58.079Z,14.10
2022-10-14T19:50:29.783Z,14.10
2022-10-14T19:53:01.494Z,14.00
2022-10-14T19:55:33.331Z,14.00
2022-10-14T19:58:05.894Z,14.00
2022-10-14T20:00:37.678Z,13.90
2022-10-14T20:03:09.423Z,13.90
2022-10-14T20:05:41.147Z,13.90
2022-10-14T20:08:12.877Z,14.00
2022-10-14T20:10:44.597Z,13.90
2022-10-14T20:13:16.357Z,13.90
2022-10-14T20:15:59.625Z,13.90
2022-10-14T20:18:32.321Z,13.80
2022-10-14T20:21:06.653Z,13.80
2022-10-14T20:23:39.102Z,13.80
2022-10-14T20:26:13.732Z,13.70
2022-10-14T20:28:46.267Z,13.80
2022-10-14T20:31:22.552Z,13.70
2022-10-14T20:33:55.979Z,13.70
2022-10-14T20:36:27.803Z,13.70
2022-10-14T20:38:59.516Z,13.70
2022-10-14T20:41:31.279Z,13.70
2022-10-14T20:44:03.043Z,13.70
2022-10-14T20:46:34.812Z,13.60
2022-10-14T20:49:06.615Z,13.60
2022-10-14T20:51:38.761Z,13.60
2022-10-14T20:54:11.855Z,13.50
2022-10-14T20:56:43.733Z,13.50
2022-10-14T20:59:15.499Z,13.50
2022-10-14T21:01:47.347Z,13.50
2022-10-14T21:04:19.124Z,13.50
2022-10-14T21:06:50.836Z,13.50
2022-10-14T21:09:22.539Z,13.50
2022-10-14T21:14:30.924Z,13.50
2022-10-14T21:17:02.815Z,13.50
2022-10-14T21:19:34.706Z,13.50
2022-10-14T21:22:06.435Z,13.50
2022-10-14T21:24:41.051Z,13.50
2022-10-14T21:27:12.831Z,13.50
2022-10-14T21:29:44.681Z,13.40
2022-10-14T21:32:16.521Z,13.40
2022-10-14T21:34:48.244Z,13.40
2022-10-14T21:37:20.415Z,13.40
2022-10-14T21:39:52.404Z,13.40
2022-10-14T21:42:24.488Z,13.40
2022-10-14T21:44:56.412Z,13.50
2022-10-14T21:47:28.143Z,13.40
2022-10-14T21:49:59.877Z,13.40
2022-10-14T21:52:31.596Z,13.40
2022-10-14T21:55:03.749Z,13.50
2022-10-14T21:57:35.471Z,13.50
2022-10-14T22:00:09.375Z,13.50
2022-10-14T22:02:41.338Z,13.40
2022-10-14T22:05:13.144Z,13.40
2022-10-14T22:07:44.907Z,13.40
2022-10-14T22:10:35.238Z,13.40
2022-10-14T22:13:06.995Z,13.30
2022-10-14T22:15:42.759Z,13.40
2022-10-14T22:18:14.481Z,13.40
2022-10-14T22:20:46.829Z,13.40
2022-10-14T22:23:18.566Z,13.40
2022-10-14T22:25:50.316Z,13.40
2022-10-14T22:28:22.062Z,13.40
2022-10-14T22:30:53.795Z,13.40
2022-10-14T22:33:25.516Z,13.40
2022-10-14T22:36:09.928Z,13.40
2022-10-14T22:38:43.347Z,13.40
2022-10-14T22:41:17.059Z,13.40
2022-10-14T22:43:50.798Z,13.40
2022-10-14T22:46:25.886Z,13.40
2022-10-14T22:48:58.412Z,13.40
2022-10-14T22:51:32.679Z,13.40
2022-10-14T22:54:04.547Z,13.40
2022-10-14T22:56:36.294Z,13.40
2022-10-14T22:59:11.174Z,13.40
2022-10-14T23:01:43.624Z,13.40
2022-10-14T23:04:15.362Z,13.40
2022-10-14T23:06:49.627Z,13.40
2022-10-14T23:09:21.328Z,13.40
2022-10-14T23:11:53.031Z,13.40
2022-10-14T23:14:24.750Z,13.40
2022-10-14T23:16:56.600Z,13.30
2022-10-14T23:19:28.383Z,13.30
2022-10-14T23:22:00.159Z,13.30
2022-10-14T23:24:31.921Z,13.30
2022-10-14T23:27:03.719Z,13.30
2022-10-14T23:29:35.471Z,13.30
2022-10-14T23:32:07.875Z,13.30
2022-10-14T23:34:39.666Z,13.30
2022-10-14T23:37:11.424Z,13.30
2022-10-14T23:39:43.115Z,13.30
2022-10-14T23:42:15.191Z,13.30
2022-10-14T23:44:46.941Z,13.30
2022-10-14T23:47:18.652Z,13.30
2022-10-14T23:49:50.399Z,13.30
2022-10-14T23:52:22.110Z,13.40
2022-10-14T23:54:54.016Z,13.30
2022-10-14T23:57:26.006Z,15.00
2022-10-14T23:59:57.893Z,13.30
